sensor_id;sensor_type;location;lat;lon;timestamp;temperature;humidity
12901;DHT22;6518;50.930;5.344;2023-05-10T00:02:01;14.30;99.90
12901;DHT22;6518;50.930;5.344;2023-05-10T00:04:28;14.30;99.90
12901;DHT22;6518;50.930;5.344;2023-05-10T00:06:55;14.20;99.90
12901;DHT22;6518;50.930;5.344;2023-05-10T00:09:22;14.20;99.90
12901;DHT22;6518;50.930;5.344;2023-05-10T00:11:48;14.30;99.90
12901;DHT22;6518;50.930;5.344;2023-05-10T00:14:15;14.30;99.90
12901;DHT22;6518;50.930;5.344;2023-05-10T00:16:42;14.20;99.90
12901;DHT22;6518;50.930;5.344;2023-05-10T00:19:10;14.20;99.90
12901;DHT22;6518;50.930;5.344;2023-05-10T00:21:37;14.30;99.90
12901;DHT22;6518;50.930;5.344;2023-05-10T00:24:05;14.30;99.90
12901;DHT22;6518;50.930;5.344;2023-05-10T00:26:32;14.30;99.90
12901;DHT22;6518;50.930;5.344;2023-05-10T00:28:58;14.40;99.90
12901;DHT22;6518;50.930;5.344;2023-05-10T00:31:25;14.30;99.90
12901;DHT22;6518;50.930;5.344;2023-05-10T00:33:52;14.30;99.90
12901;DHT22;6518;50.930;5.344;2023-05-10T00:36:21;14.30;99.90
12901;DHT22;6518;50.930;5.344;2023-05-10T00:38:48;14.20;99.90
12901;DHT22;6518;50.930;5.344;2023-05-10T00:41:14;14.20;99.90
12901;DHT22;6518;50.930;5.344;2023-05-10T00:43:42;14.20;99.90
12901;DHT22;6518;50.930;5.344;2023-05-10T00:46:09;14.20;99.90
12901;DHT22;6518;50.930;5.344;2023-05-10T00:48:36;14.20;99.90
12901;DHT22;6518;50.930;5.344;2023-05-10T00:51:03;14.30;99.90
12901;DHT22;6518;50.930;5.344;2023-05-10T00:53:32;14.30;99.90
12901;DHT22;6518;50.930;5.344;2023-05-10T00:56:01;14.30;99.90
12901;DHT22;6518;50.930;5.344;2023-05-10T00:58:28;14.20;99.90
12901;DHT22;6518;50.930;5.344;2023-05-10T01:00:56;14.20;99.90
12901;DHT22;6518;50.930;5.344;2023-05-10T01:03:24;14.10;99.90
12901;DHT22;6518;50.930;5.344;2023-05-10T01:05:51;14.10;99.90
12901;DHT22;6518;50.930;5.344;2023-05-10T01:08:18;14.00;99.90
12901;DHT22;6518;50.930;5.344;2023-05-10T01:10:47;14.00;99.90
12901;DHT22;6518;50.930;5.344;2023-05-10T01:13:26;14.00;99.90
12901;DHT22;6518;50.930;5.344;2023-05-10T01:15:57;14.00;99.90
12901;DHT22;6518;50.930;5.344;2023-05-10T01:18:26;14.00;99.90
12901;DHT22;6518;50.930;5.344;2023-05-10T01:20:58;14.10;99.90
12901;DHT22;6518;50.930;5.344;2023-05-10T01:23:40;14.00;99.90
12901;DHT22;6518;50.930;5.344;2023-05-10T01:26:38;14.00;99.90
12901;DHT22;6518;50.930;5.344;2023-05-10T01:29:18;14.00;99.90
12901;DHT22;6518;50.930;5.344;2023-05-10T01:32:08;14.00;99.90
12901;DHT22;6518;50.930;5.344;2023-05-10T01:34:42;14.00;99.90
12901;DHT22;6518;50.930;5.344;2023-05-10T01:37:16;13.90;99.90
12901;DHT22;6518;50.930;5.344;2023-05-10T01:39:47;13.90;99.90
12901;DHT22;6518;50.930;5.344;2023-05-10T01:42:19;13.90;99.90
12901;DHT22;6518;50.930;5.344;2023-05-10T01:44:53;13.90;99.90
12901;DHT22;6518;50.930;5.344;2023-05-10T01:47:31;13.90;99.90
12901;DHT22;6518;50.930;5.344;2023-05-10T01:50:03;13.90;99.90
12901;DHT22;6518;50.930;5.344;2023-05-10T01:52:33;14.00;99.90
12901;DHT22;6518;50.930;5.344;2023-05-10T01:55:06;14.00;99.90
12901;DHT22;6518;50.930;5.344;2023-05-10T01:57:35;13.90;99.90
12901;DHT22;6518;50.930;5.344;2023-05-10T02:00:07;13.90;99.90
12901;DHT22;6518;50.930;5.344;2023-05-10T02:02:38;14.00;99.90
12901;DHT22;6518;50.930;5.344;2023-05-10T02:05:07;14.00;99.90
12901;DHT22;6518;50.930;5.344;2023-05-10T02:07:36;14.00;99.90
12901;DHT22;6518;50.930;5.344;2023-05-10T02:10:04;14.00;99.90
12901;DHT22;6518;50.930;5.344;2023-05-10T02:12:35;14.00;99.90
12901;DHT22;6518;50.930;5.344;2023-05-10T02:15:05;14.00;99.90
12901;DHT22;6518;50.930;5.344;2023-05-10T02:17:32;14.00;99.90
12901;DHT22;6518;50.930;5.344;2023-05-10T02:20:01;14.00;99.90
12901;DHT22;6518;50.930;5.344;2023-05-10T02:22:29;14.00;99.90
12901;DHT22;6518;50.930;5.344;2023-05-10T02:24:58;14.00;99.90
12901;DHT22;6518;50.930;5.344;2023-05-10T02:27:27;14.00;99.90
12901;DHT22;6518;50.930;5.344;2023-05-10T02:29:56;14.00;99.90
12901;DHT22;6518;50.930;5.344;2023-05-10T02:32:25;14.10;99.90
12901;DHT22;6518;50.930;5.344;2023-05-10T02:34:53;14.10;99.90
12901;DHT22;6518;50.930;5.344;2023-05-10T02:37:22;14.10;99.90
12901;DHT22;6518;50.930;5.344;2023-05-10T02:39:51;14.10;99.90
12901;DHT22;6518;50.930;5.344;2023-05-10T02:42:22;14.10;99.90
12901;DHT22;6518;50.930;5.344;2023-05-10T02:44:52;14.10;99.90
12901;DHT22;6518;50.930;5.344;2023-05-10T02:47:20;14.10;99.90
12901;DHT22;6518;50.930;5.344;2023-05-10T02:49:47;14.10;99.90
12901;DHT22;6518;50.930;5.344;2023-05-10T02:52:18;14.00;99.90
12901;DHT22;6518;50.930;5.344;2023-05-10T02:54:50;14.00;99.90
12901;DHT22;6518;50.930;5.344;2023-05-10T02:57:31;14.00;99.90
12901;DHT22;6518;50.930;5.344;2023-05-10T02:59:59;14.00;99.90
12901;DHT22;6518;50.930;5.344;2023-05-10T03:02:27;14.00;99.90
12901;DHT22;6518;50.930;5.344;2023-05-10T03:04:56;14.30;99.90
12901;DHT22;6518;50.930;5.344;2023-05-10T03:07:23;14.00;99.90
12901;DHT22;6518;50.930;5.344;2023-05-10T03:09:52;14.10;99.90
12901;DHT22;6518;50.930;5.344;2023-05-10T03:12:25;14.10;99.90
12901;DHT22;6518;50.930;5.344;2023-05-10T03:14:57;14.10;99.90
12901;DHT22;6518;50.930;5.344;2023-05-10T03:17:30;14.10;99.90
12901;DHT22;6518;50.930;5.344;2023-05-10T03:20:04;14.00;99.90
12901;DHT22;6518;50.930;5.344;2023-05-10T03:22:37;14.00;99.90
12901;DHT22;6518;50.930;5.344;2023-05-10T03:25:07;14.00;99.90
12901;DHT22;6518;50.930;5.344;2023-05-10T03:27:36;14.00;99.90
12901;DHT22;6518;50.930;5.344;2023-05-10T03:30:06;14.00;99.90
12901;DHT22;6518;50.930;5.344;2023-05-10T03:32:34;14.00;99.90
12901;DHT22;6518;50.930;5.344;2023-05-10T03:35:05;14.00;99.90
12901;DHT22;6518;50.930;5.344;2023-05-10T03:37:32;14.00;99.90
12901;DHT22;6518;50.930;5.344;2023-05-10T03:39:59;14.00;99.90
12901;DHT22;6518;50.930;5.344;2023-05-10T03:42:28;14.00;99.90
12901;DHT22;6518;50.930;5.344;2023-05-10T03:44:55;13.90;99.90
12901;DHT22;6518;50.930;5.344;2023-05-10T03:47:21;13.90;99.90
12901;DHT22;6518;50.930;5.344;2023-05-10T03:49:48;13.90;99.90
12901;DHT22;6518;50.930;5.344;2023-05-10T03:52:15;13.80;99.90
12901;DHT22;6518;50.930;5.344;2023-05-10T03:54:42;13.90;99.90
12901;DHT22;6518;50.930;5.344;2023-05-10T03:57:09;13.80;99.90
12901;DHT22;6518;50.930;5.344;2023-05-10T03:59:37;13.90;99.90
12901;DHT22;6518;50.930;5.344;2023-05-10T04:02:04;13.80;99.90
12901;DHT22;6518;50.930;5.344;2023-05-10T04:04:31;13.80;99.90
12901;DHT22;6518;50.930;5.344;2023-05-10T04:06:58;13.80;99.90
12901;DHT22;6518;50.930;5.344;2023-05-10T04:09:25;13.80;99.90
12901;DHT22;6518;50.930;5.344;2023-05-10T04:11:51;13.80;99.90
12901;DHT22;6518;50.930;5.344;2023-05-10T04:14:19;13.70;99.90
12901;DHT22;6518;50.930;5.344;2023-05-10T04:16:48;13.60;99.90
12901;DHT22;6518;50.930;5.344;2023-05-10T04:19:16;13.40;99.90
12901;DHT22;6518;50.930;5.344;2023-05-10T04:21:42;13.50;99.90
12901;DHT22;6518;50.930;5.344;2023-05-10T04:24:09;13.40;99.90
12901;DHT22;6518;50.930;5.344;2023-05-10T04:26:36;13.50;99.90
12901;DHT22;6518;50.930;5.344;2023-05-10T04:29:03;13.50;99.90
12901;DHT22;6518;50.930;5.344;2023-05-10T04:31:30;13.60;99.90
12901;DHT22;6518;50.930;5.344;2023-05-10T04:33:58;13.60;99.90
12901;DHT22;6518;50.930;5.344;2023-05-10T04:36:25;13.70;99.90
12901;DHT22;6518;50.930;5.344;2023-05-10T04:38:53;13.70;99.90
12901;DHT22;6518;50.930;5.344;2023-05-10T04:41:20;13.70;99.90
12901;DHT22;6518;50.930;5.344;2023-05-10T04:43:47;13.70;99.90
12901;DHT22;6518;50.930;5.344;2023-05-10T04:46:15;13.70;99.90
12901;DHT22;6518;50.930;5.344;2023-05-10T04:48:41;13.70;99.90
12901;DHT22;6518;50.930;5.344;2023-05-10T04:51:10;13.70;99.90
12901;DHT22;6518;50.930;5.344;2023-05-10T04:53:37;13.70;99.90
12901;DHT22;6518;50.930;5.344;2023-05-10T04:56:05;13.60;99.90
12901;DHT22;6518;50.930;5.344;2023-05-10T04:58:32;13.60;99.90
12901;DHT22;6518;50.930;5.344;2023-05-10T05:01:05;13.50;99.90
12901;DHT22;6518;50.930;5.344;2023-05-10T05:03:33;13.50;99.90
12901;DHT22;6518;50.930;5.344;2023-05-10T05:06:00;13.50;99.90
12901;DHT22;6518;50.930;5.344;2023-05-10T05:08:28;13.40;99.90
12901;DHT22;6518;50.930;5.344;2023-05-10T05:10:55;13.30;99.90
12901;DHT22;6518;50.930;5.344;2023-05-10T05:13:22;13.30;99.90
12901;DHT22;6518;50.930;5.344;2023-05-10T05:15:49;13.30;99.90
12901;DHT22;6518;50.930;5.344;2023-05-10T05:18:16;13.30;99.90
12901;DHT22;6518;50.930;5.344;2023-05-10T05:20:43;13.30;99.90
12901;DHT22;6518;50.930;5.344;2023-05-10T05:23:10;13.30;99.90
12901;DHT22;6518;50.930;5.344;2023-05-10T05:25:38;13.30;99.90
12901;DHT22;6518;50.930;5.344;2023-05-10T05:28:05;13.20;99.90
12901;DHT22;6518;50.930;5.344;2023-05-10T05:30:32;13.20;99.90
12901;DHT22;6518;50.930;5.344;2023-05-10T05:32:59;13.20;99.90
12901;DHT22;6518;50.930;5.344;2023-05-10T05:35:25;13.20;99.90
12901;DHT22;6518;50.930;5.344;2023-05-10T05:37:52;13.20;99.90
12901;DHT22;6518;50.930;5.344;2023-05-10T05:40:19;13.20;99.90
12901;DHT22;6518;50.930;5.344;2023-05-10T05:42:48;13.20;99.90
12901;DHT22;6518;50.930;5.344;2023-05-10T05:45:15;13.10;99.90
12901;DHT22;6518;50.930;5.344;2023-05-10T05:47:42;13.10;99.90
12901;DHT22;6518;50.930;5.344;2023-05-10T05:50:10;13.20;99.90
12901;DHT22;6518;50.930;5.344;2023-05-10T05:52:36;13.20;99.90
12901;DHT22;6518;50.930;5.344;2023-05-10T05:55:04;13.30;99.90
12901;DHT22;6518;50.930;5.344;2023-05-10T05:57:31;13.30;99.90
12901;DHT22;6518;50.930;5.344;2023-05-10T05:59:59;13.30;99.90
12901;DHT22;6518;50.930;5.344;2023-05-10T06:02:26;13.30;99.90
12901;DHT22;6518;50.930;5.344;2023-05-10T06:04:53;13.40;99.90
12901;DHT22;6518;50.930;5.344;2023-05-10T06:07:20;13.40;99.90
12901;DHT22;6518;50.930;5.344;2023-05-10T06:09:47;13.50;99.90
12901;DHT22;6518;50.930;5.344;2023-05-10T06:12:13;13.50;99.90
12901;DHT22;6518;50.930;5.344;2023-05-10T06:14:40;13.60;99.90
12901;DHT22;6518;50.930;5.344;2023-05-10T06:17:09;13.60;99.90
12901;DHT22;6518;50.930;5.344;2023-05-10T06:19:36;13.60;99.90
12901;DHT22;6518;50.930;5.344;2023-05-10T06:22:02;13.70;99.90
12901;DHT22;6518;50.930;5.344;2023-05-10T06:24:29;13.70;99.90
12901;DHT22;6518;50.930;5.344;2023-05-10T06:26:56;13.80;99.90
12901;DHT22;6518;50.930;5.344;2023-05-10T06:29:25;13.80;99.90
12901;DHT22;6518;50.930;5.344;2023-05-10T06:31:52;13.80;99.90
12901;DHT22;6518;50.930;5.344;2023-05-10T06:34:21;13.90;99.90
12901;DHT22;6518;50.930;5.344;2023-05-10T06:36:48;13.90;99.90
12901;DHT22;6518;50.930;5.344;2023-05-10T06:39:15;13.90;99.90
12901;DHT22;6518;50.930;5.344;2023-05-10T06:41:42;13.90;99.90
12901;DHT22;6518;50.930;5.344;2023-05-10T06:44:08;13.90;99.90
12901;DHT22;6518;50.930;5.344;2023-05-10T06:46:36;14.00;99.90
12901;DHT22;6518;50.930;5.344;2023-05-10T06:49:02;14.00;99.90
12901;DHT22;6518;50.930;5.344;2023-05-10T06:51:31;14.00;99.90
12901;DHT22;6518;50.930;5.344;2023-05-10T06:53:58;14.00;99.90
12901;DHT22;6518;50.930;5.344;2023-05-10T06:56:25;14.00;99.90
12901;DHT22;6518;50.930;5.344;2023-05-10T06:58:52;14.00;99.90
12901;DHT22;6518;50.930;5.344;2023-05-10T07:01:19;14.00;99.90
12901;DHT22;6518;50.930;5.344;2023-05-10T07:03:46;14.10;99.90
12901;DHT22;6518;50.930;5.344;2023-05-10T07:06:13;14.10;99.90
12901;DHT22;6518;50.930;5.344;2023-05-10T07:08:41;14.10;99.90
12901;DHT22;6518;50.930;5.344;2023-05-10T07:11:08;14.10;99.90
12901;DHT22;6518;50.930;5.344;2023-05-10T07:13:35;14.10;99.90
12901;DHT22;6518;50.930;5.344;2023-05-10T07:16:05;14.10;99.90
12901;DHT22;6518;50.930;5.344;2023-05-10T07:18:32;14.10;99.90
12901;DHT22;6518;50.930;5.344;2023-05-10T07:20:59;14.10;99.90
12901;DHT22;6518;50.930;5.344;2023-05-10T07:23:26;14.00;99.90
12901;DHT22;6518;50.930;5.344;2023-05-10T07:25:54;14.10;99.90
12901;DHT22;6518;50.930;5.344;2023-05-10T07:28:22;14.10;99.90
12901;DHT22;6518;50.930;5.344;2023-05-10T07:30:49;14.10;99.90
12901;DHT22;6518;50.930;5.344;2023-05-10T07:33:17;14.10;99.90
12901;DHT22;6518;50.930;5.344;2023-05-10T07:35:43;14.10;99.90
12901;DHT22;6518;50.930;5.344;2023-05-10T07:38:10;14.20;99.90
12901;DHT22;6518;50.930;5.344;2023-05-10T07:40:38;14.20;99.90
12901;DHT22;6518;50.930;5.344;2023-05-10T07:43:06;14.30;99.90
12901;DHT22;6518;50.930;5.344;2023-05-10T07:45:33;14.30;99.90
12901;DHT22;6518;50.930;5.344;2023-05-10T07:48:00;14.30;99.90
12901;DHT22;6518;50.930;5.344;2023-05-10T07:50:27;14.40;99.90
12901;DHT22;6518;50.930;5.344;2023-05-10T07:52:54;14.50;99.90
12901;DHT22;6518;50.930;5.344;2023-05-10T07:55:21;14.50;99.90
12901;DHT22;6518;50.930;5.344;2023-05-10T07:57:48;14.60;99.90
12901;DHT22;6518;50.930;5.344;2023-05-10T08:00:18;14.60;99.90
12901;DHT22;6518;50.930;5.344;2023-05-10T08:02:46;14.60;99.90
12901;DHT22;6518;50.930;5.344;2023-05-10T08:05:13;14.60;99.90
12901;DHT22;6518;50.930;5.344;2023-05-10T08:07:40;14.60;99.90
12901;DHT22;6518;50.930;5.344;2023-05-10T08:10:08;14.60;99.90
12901;DHT22;6518;50.930;5.344;2023-05-10T08:12:36;14.60;99.90
12901;DHT22;6518;50.930;5.344;2023-05-10T08:15:04;14.60;99.90
12901;DHT22;6518;50.930;5.344;2023-05-10T08:17:33;14.50;99.90
12901;DHT22;6518;50.930;5.344;2023-05-10T08:20:00;14.40;99.90
12901;DHT22;6518;50.930;5.344;2023-05-10T08:22:27;14.30;99.90
12901;DHT22;6518;50.930;5.344;2023-05-10T08:24:54;14.30;99.90
12901;DHT22;6518;50.930;5.344;2023-05-10T08:27:21;14.20;99.90
12901;DHT22;6518;50.930;5.344;2023-05-10T08:29:48;14.20;99.90
12901;DHT22;6518;50.930;5.344;2023-05-10T08:32:15;14.10;99.90
12901;DHT22;6518;50.930;5.344;2023-05-10T08:34:43;14.00;99.90
12901;DHT22;6518;50.930;5.344;2023-05-10T08:37:10;13.90;99.90
12901;DHT22;6518;50.930;5.344;2023-05-10T08:39:38;13.90;99.90
12901;DHT22;6518;50.930;5.344;2023-05-10T08:42:06;13.90;99.90
12901;DHT22;6518;50.930;5.344;2023-05-10T08:44:35;13.90;99.90
12901;DHT22;6518;50.930;5.344;2023-05-10T08:47:04;13.90;99.90
12901;DHT22;6518;50.930;5.344;2023-05-10T08:49:32;14.00;99.90
12901;DHT22;6518;50.930;5.344;2023-05-10T08:52:03;14.00;99.90
12901;DHT22;6518;50.930;5.344;2023-05-10T08:54:31;13.90;99.90
12901;DHT22;6518;50.930;5.344;2023-05-10T08:56:59;13.90;99.90
12901;DHT22;6518;50.930;5.344;2023-05-10T08:59:26;14.00;99.90
12901;DHT22;6518;50.930;5.344;2023-05-10T09:01:55;14.00;99.90
12901;DHT22;6518;50.930;5.344;2023-05-10T09:04:23;14.00;99.90
12901;DHT22;6518;50.930;5.344;2023-05-10T09:06:50;14.00;99.90
12901;DHT22;6518;50.930;5.344;2023-05-10T09:09:19;14.00;99.90
12901;DHT22;6518;50.930;5.344;2023-05-10T09:11:47;14.00;99.90
12901;DHT22;6518;50.930;5.344;2023-05-10T09:14:15;14.00;99.90
12901;DHT22;6518;50.930;5.344;2023-05-10T09:16:42;14.00;99.90
12901;DHT22;6518;50.930;5.344;2023-05-10T09:19:09;14.10;99.90
12901;DHT22;6518;50.930;5.344;2023-05-10T09:21:37;14.20;99.90
12901;DHT22;6518;50.930;5.344;2023-05-10T09:24:05;14.30;99.90
12901;DHT22;6518;50.930;5.344;2023-05-10T09:26:34;14.40;99.90
12901;DHT22;6518;50.930;5.344;2023-05-10T09:29:01;14.40;99.90
12901;DHT22;6518;50.930;5.344;2023-05-10T09:31:45;14.40;99.90
12901;DHT22;6518;50.930;5.344;2023-05-10T09:34:16;14.50;99.90
12901;DHT22;6518;50.930;5.344;2023-05-10T09:36:54;14.60;99.90
12901;DHT22;6518;50.930;5.344;2023-05-10T09:39:30;14.70;99.90
12901;DHT22;6518;50.930;5.344;2023-05-10T09:41:59;14.80;99.90
12901;DHT22;6518;50.930;5.344;2023-05-10T09:44:29;14.90;99.90
12901;DHT22;6518;50.930;5.344;2023-05-10T09:46:57;15.00;99.90
12901;DHT22;6518;50.930;5.344;2023-05-10T09:49:24;15.10;99.90
12901;DHT22;6518;50.930;5.344;2023-05-10T09:52:01;15.00;99.90
12901;DHT22;6518;50.930;5.344;2023-05-10T09:54:29;15.10;99.90
12901;DHT22;6518;50.930;5.344;2023-05-10T09:56:56;15.00;99.90
12901;DHT22;6518;50.930;5.344;2023-05-10T09:59:27;15.10;99.90
12901;DHT22;6518;50.930;5.344;2023-05-10T10:01:56;15.20;99.90
12901;DHT22;6518;50.930;5.344;2023-05-10T10:04:23;15.40;99.90
12901;DHT22;6518;50.930;5.344;2023-05-10T10:07:01;15.40;99.90
12901;DHT22;6518;50.930;5.344;2023-05-10T10:09:29;15.40;99.90
12901;DHT22;6518;50.930;5.344;2023-05-10T10:11:56;15.30;99.90
12901;DHT22;6518;50.930;5.344;2023-05-10T10:14:23;15.40;99.90
12901;DHT22;6518;50.930;5.344;2023-05-10T10:16:52;15.40;99.90
12901;DHT22;6518;50.930;5.344;2023-05-10T10:19:19;15.50;99.90
12901;DHT22;6518;50.930;5.344;2023-05-10T10:21:46;15.60;99.90
12901;DHT22;6518;50.930;5.344;2023-05-10T10:24:13;15.60;99.90
12901;DHT22;6518;50.930;5.344;2023-05-10T10:26:41;15.60;99.90
12901;DHT22;6518;50.930;5.344;2023-05-10T10:29:15;15.40;99.90
12901;DHT22;6518;50.930;5.344;2023-05-10T10:31:47;15.30;99.90
12901;DHT22;6518;50.930;5.344;2023-05-10T10:34:25;15.30;99.90
12901;DHT22;6518;50.930;5.344;2023-05-10T10:36:54;15.30;99.90
12901;DHT22;6518;50.930;5.344;2023-05-10T10:39:21;15.40;99.90
12901;DHT22;6518;50.930;5.344;2023-05-10T10:41:51;15.40;99.90
12901;DHT22;6518;50.930;5.344;2023-05-10T10:44:33;15.40;99.90
12901;DHT22;6518;50.930;5.344;2023-05-10T10:47:10;15.50;99.90
12901;DHT22;6518;50.930;5.344;2023-05-10T10:49:52;15.60;99.90
12901;DHT22;6518;50.930;5.344;2023-05-10T10:52:31;15.70;99.90
12901;DHT22;6518;50.930;5.344;2023-05-10T10:55:01;15.60;99.90
12901;DHT22;6518;50.930;5.344;2023-05-10T10:57:30;15.70;99.90
12901;DHT22;6518;50.930;5.344;2023-05-10T11:00:19;15.80;99.90
12901;DHT22;6518;50.930;5.344;2023-05-10T11:02:48;15.90;99.90
12901;DHT22;6518;50.930;5.344;2023-05-10T11:05:36;16.00;99.90
12901;DHT22;6518;50.930;5.344;2023-05-10T11:08:15;16.10;99.90
12901;DHT22;6518;50.930;5.344;2023-05-10T11:10:54;16.20;99.90
12901;DHT22;6518;50.930;5.344;2023-05-10T11:13:30;16.20;99.90
12901;DHT22;6518;50.930;5.344;2023-05-10T11:15:57;16.30;99.90
12901;DHT22;6518;50.930;5.344;2023-05-10T11:18:26;16.20;99.90
12901;DHT22;6518;50.930;5.344;2023-05-10T11:20:57;16.10;99.90
12901;DHT22;6518;50.930;5.344;2023-05-10T11:23:30;16.00;99.90
12901;DHT22;6518;50.930;5.344;2023-05-10T11:25:57;16.00;99.90
12901;DHT22;6518;50.930;5.344;2023-05-10T11:28:24;16.10;99.90
12901;DHT22;6518;50.930;5.344;2023-05-10T11:30:52;16.00;99.90
12901;DHT22;6518;50.930;5.344;2023-05-10T11:33:19;16.00;99.90
12901;DHT22;6518;50.930;5.344;2023-05-10T11:35:46;16.00;99.90
12901;DHT22;6518;50.930;5.344;2023-05-10T11:38:15;16.10;99.90
12901;DHT22;6518;50.930;5.344;2023-05-10T11:40:42;16.20;99.90
12901;DHT22;6518;50.930;5.344;2023-05-10T11:43:09;16.20;99.90
12901;DHT22;6518;50.930;5.344;2023-05-10T11:45:39;16.20;99.90
12901;DHT22;6518;50.930;5.344;2023-05-10T11:48:07;16.20;99.90
12901;DHT22;6518;50.930;5.344;2023-05-10T11:50:34;16.30;99.90
12901;DHT22;6518;50.930;5.344;2023-05-10T11:53:01;16.30;99.90
12901;DHT22;6518;50.930;5.344;2023-05-10T11:55:29;16.20;99.90
12901;DHT22;6518;50.930;5.344;2023-05-10T11:58:01;16.20;99.90
12901;DHT22;6518;50.930;5.344;2023-05-10T12:00:29;16.20;99.90
12901;DHT22;6518;50.930;5.344;2023-05-10T12:02:57;16.20;99.90
12901;DHT22;6518;50.930;5.344;2023-05-10T12:05:24;16.20;99.90
12901;DHT22;6518;50.930;5.344;2023-05-10T12:07:51;16.30;99.90
12901;DHT22;6518;50.930;5.344;2023-05-10T12:10:25;16.30;99.90
12901;DHT22;6518;50.930;5.344;2023-05-10T12:12:54;16.40;99.90
12901;DHT22;6518;50.930;5.344;2023-05-10T12:15:24;16.40;99.90
12901;DHT22;6518;50.930;5.344;2023-05-10T12:17:51;16.50;99.90
12901;DHT22;6518;50.930;5.344;2023-05-10T12:20:19;16.60;99.90
12901;DHT22;6518;50.930;5.344;2023-05-10T12:22:49;16.50;99.90
12901;DHT22;6518;50.930;5.344;2023-05-10T12:25:16;16.60;99.90
12901;DHT22;6518;50.930;5.344;2023-05-10T12:27:51;16.60;99.90
12901;DHT22;6518;50.930;5.344;2023-05-10T12:30:24;16.60;99.90
12901;DHT22;6518;50.930;5.344;2023-05-10T12:32:52;16.50;99.90
12901;DHT22;6518;50.930;5.344;2023-05-10T12:35:19;16.40;99.90
12901;DHT22;6518;50.930;5.344;2023-05-10T12:37:47;16.40;99.90
12901;DHT22;6518;50.930;5.344;2023-05-10T12:40:14;16.50;99.90
12901;DHT22;6518;50.930;5.344;2023-05-10T12:42:41;16.40;99.90
12901;DHT22;6518;50.930;5.344;2023-05-10T12:45:11;16.50;99.90
12901;DHT22;6518;50.930;5.344;2023-05-10T12:47:39;16.50;99.90
12901;DHT22;6518;50.930;5.344;2023-05-10T12:50:07;16.50;99.90
12901;DHT22;6518;50.930;5.344;2023-05-10T12:52:34;16.60;99.90
12901;DHT22;6518;50.930;5.344;2023-05-10T12:55:01;16.60;99.90
12901;DHT22;6518;50.930;5.344;2023-05-10T12:57:28;16.70;99.90
12901;DHT22;6518;50.930;5.344;2023-05-10T12:59:56;16.80;99.90
12901;DHT22;6518;50.930;5.344;2023-05-10T13:02:23;16.90;99.90
12901;DHT22;6518;50.930;5.344;2023-05-10T13:04:51;17.00;99.90
12901;DHT22;6518;50.930;5.344;2023-05-10T13:07:18;17.10;99.90
12901;DHT22;6518;50.930;5.344;2023-05-10T13:09:45;17.10;99.90
12901;DHT22;6518;50.930;5.344;2023-05-10T13:12:12;17.10;99.90
12901;DHT22;6518;50.930;5.344;2023-05-10T13:14:39;17.10;99.90
12901;DHT22;6518;50.930;5.344;2023-05-10T13:17:06;17.20;99.90
12901;DHT22;6518;50.930;5.344;2023-05-10T13:19:34;17.30;99.90
12901;DHT22;6518;50.930;5.344;2023-05-10T13:22:02;17.30;99.90
12901;DHT22;6518;50.930;5.344;2023-05-10T13:24:29;17.30;99.90
12901;DHT22;6518;50.930;5.344;2023-05-10T13:26:56;17.30;99.90
12901;DHT22;6518;50.930;5.344;2023-05-10T13:29:23;17.30;99.90
12901;DHT22;6518;50.930;5.344;2023-05-10T13:31:50;17.30;99.90
12901;DHT22;6518;50.930;5.344;2023-05-10T13:34:17;17.30;99.90
12901;DHT22;6518;50.930;5.344;2023-05-10T13:36:46;17.40;99.90
12901;DHT22;6518;50.930;5.344;2023-05-10T13:39:14;17.50;99.90
12901;DHT22;6518;50.930;5.344;2023-05-10T13:41:41;17.60;99.90
12901;DHT22;6518;50.930;5.344;2023-05-10T13:44:08;17.70;99.90
12901;DHT22;6518;50.930;5.344;2023-05-10T13:46:36;17.70;99.90
12901;DHT22;6518;50.930;5.344;2023-05-10T13:49:04;17.70;99.90
12901;DHT22;6518;50.930;5.344;2023-05-10T13:51:33;17.70;99.90
12901;DHT22;6518;50.930;5.344;2023-05-10T13:54:00;17.70;99.90
12901;DHT22;6518;50.930;5.344;2023-05-10T13:56:28;17.60;99.90
12901;DHT22;6518;50.930;5.344;2023-05-10T13:58:56;17.60;99.90
12901;DHT22;6518;50.930;5.344;2023-05-10T14:01:23;17.70;99.90
12901;DHT22;6518;50.930;5.344;2023-05-10T14:03:50;17.70;99.90
12901;DHT22;6518;50.930;5.344;2023-05-10T14:06:18;17.80;99.90
12901;DHT22;6518;50.930;5.344;2023-05-10T14:08:45;17.90;99.90
12901;DHT22;6518;50.930;5.344;2023-05-10T14:11:13;18.00;99.90
12901;DHT22;6518;50.930;5.344;2023-05-10T14:13:41;18.10;99.50
12901;DHT22;6518;50.930;5.344;2023-05-10T14:16:08;18.10;99.70
12901;DHT22;6518;50.930;5.344;2023-05-10T14:18:36;18.20;99.20
12901;DHT22;6518;50.930;5.344;2023-05-10T14:21:04;18.20;99.30
12901;DHT22;6518;50.930;5.344;2023-05-10T14:23:31;18.20;97.90
12901;DHT22;6518;50.930;5.344;2023-05-10T14:25:58;18.00;98.60
12901;DHT22;6518;50.930;5.344;2023-05-10T14:28:25;18.00;99.80
12901;DHT22;6518;50.930;5.344;2023-05-10T14:30:54;18.10;99.90
12901;DHT22;6518;50.930;5.344;2023-05-10T14:33:21;18.10;98.70
12901;DHT22;6518;50.930;5.344;2023-05-10T14:35:48;18.10;99.10
12901;DHT22;6518;50.930;5.344;2023-05-10T14:38:15;18.00;97.80
12901;DHT22;6518;50.930;5.344;2023-05-10T14:40:42;18.00;98.60
12901;DHT22;6518;50.930;5.344;2023-05-10T14:43:09;18.10;98.10
12901;DHT22;6518;50.930;5.344;2023-05-10T14:45:36;18.20;97.50
12901;DHT22;6518;50.930;5.344;2023-05-10T14:48:04;18.20;95.50
12901;DHT22;6518;50.930;5.344;2023-05-10T14:50:32;18.30;96.00
12901;DHT22;6518;50.930;5.344;2023-05-10T14:52:59;18.40;96.50
12901;DHT22;6518;50.930;5.344;2023-05-10T14:55:26;18.60;96.40
12901;DHT22;6518;50.930;5.344;2023-05-10T14:57:53;18.70;94.50
12901;DHT22;6518;50.930;5.344;2023-05-10T15:00:21;18.80;94.10
12901;DHT22;6518;50.930;5.344;2023-05-10T15:02:48;18.80;93.70
12901;DHT22;6518;50.930;5.344;2023-05-10T15:05:17;18.90;93.90
12901;DHT22;6518;50.930;5.344;2023-05-10T15:07:44;18.90;93.70
12901;DHT22;6518;50.930;5.344;2023-05-10T15:10:11;18.90;93.60
12901;DHT22;6518;50.930;5.344;2023-05-10T15:12:39;18.80;91.80
12901;DHT22;6518;50.930;5.344;2023-05-10T15:15:07;18.70;92.30
12901;DHT22;6518;50.930;5.344;2023-05-10T15:17:34;18.60;92.10
12901;DHT22;6518;50.930;5.344;2023-05-10T15:20:01;18.60;90.90
12901;DHT22;6518;50.930;5.344;2023-05-10T15:22:30;18.50;90.40
12901;DHT22;6518;50.930;5.344;2023-05-10T15:24:58;18.50;90.60
12901;DHT22;6518;50.930;5.344;2023-05-10T15:27:25;18.60;90.20
12901;DHT22;6518;50.930;5.344;2023-05-10T15:29:52;18.70;91.10
12901;DHT22;6518;50.930;5.344;2023-05-10T15:32:20;18.60;90.20
12901;DHT22;6518;50.930;5.344;2023-05-10T15:34:47;18.60;88.70
12901;DHT22;6518;50.930;5.344;2023-05-10T15:37:13;18.60;86.80
12901;DHT22;6518;50.930;5.344;2023-05-10T15:39:42;18.50;85.20
12901;DHT22;6518;50.930;5.344;2023-05-10T15:42:08;18.30;84.40
12901;DHT22;6518;50.930;5.344;2023-05-10T15:44:35;18.20;85.30
12901;DHT22;6518;50.930;5.344;2023-05-10T15:47:04;18.20;86.30
12901;DHT22;6518;50.930;5.344;2023-05-10T15:49:31;18.30;87.20
12901;DHT22;6518;50.930;5.344;2023-05-10T15:51:58;18.50;87.00
12901;DHT22;6518;50.930;5.344;2023-05-10T15:54:25;18.60;87.90